ADDS TAF Board (Experimental) INFO Settings
IDs:

KMCI - Kansas City Intl, MO, US

Issued at 0247 UTC 28 May 2016
Updated at: 0357 UTC 28 May 2016
Time0353Z 28/04Z 28/05Z 28/06Z 28/07Z 28/08Z 28/09Z 28/10Z 28/11Z 28/12Z 28/13Z 28/14Z 28/15Z 28/16Z
Type OBS PRVL
  [TEMP]  
PRVL PRVL PRVL PRVL PRVL PRVL PRVL PRVL PRVL PRVL PRVL PRVL
VIS 9 >6 >6 >6 >6 >6 >6 >6 >6 >6 >6 >6 >6 >6
CIG 28 35
  [30]  
35 35 35 35 30 30 30 25 25 25 25 25
Cover OVC BKN
  [BKN]  
BKN BKN BKN BKN BKN BKN BKN BKN BKN BKN BKN BKN
FltCat MVFR VFR
  [MVFR]  
VFR VFR VFR VFR MVFR MVFR MVFR MVFR MVFR MVFR MVFR MVFR
WX -RA VCTS
  [-TSRA]  
VCTS -TSRA -TSRA -TSRA VCSH VCSH VCSH -- -- -- -- --
WDir 330 VRB
[270]
VRB 170 170 170 170 170 170 170 170 170 170 170
WSpd 3 6
  [12]  
6 7 7 7 9 9 9 7 7 7 7 7
WGst -- --
  [18]  
-- -- -- -- -- -- -- -- -- -- -- --
R01/19
XWnd 2 1 VRB -3 -3 -3 -4 -4 -4 -3 -3 -3 -3 -3
XGst -- 0 -- -- -- -- -- -- -- -- -- -- -- --
HWnd 2 6 VRB -6 -6 -6 -8 -8 -8 -6 -6 -6 -6 -6
HGst -- 0 -- -- -- -- -- -- -- -- -- -- -- --
R09/27
XWnd 2 6 VRB -7 -7 -7 -9 -9 -9 -7 -7 -7 -7 -7
XGst -- 0 -- -- -- -- -- -- -- -- -- -- -- --
HWnd -2 -1 VRB 2 2 2 2 2 2 2 2 2 2 2
HGst -- 0 -- -- -- -- -- -- -- -- -- -- -- --

NOTE: TEMPO conditions in [brackets]. Keep in mind TEMPO conditions might be better (lower impact) than prevailing conditions.

Raw TAF
KMCI 280247Z 2803/2824 VRB06KT P6SM VCTS BKN035CB
  TEMPO 2803/2805 27012G18KT -TSRA BKN030CB
  FM280600 17007KT P6SM -TSRA BKN035CB
  FM280900 17009KT P6SM VCSH BKN030
  FM281200 17007KT P6SM BKN025


Raw METAR
KMCI 280353Z 33003KT 9SM -RA FEW016 BKN028 OVC085 16/14 A2978 RMK AO2 RAB15 SLP079 P0004 T01610144 $
KMCI 280253Z 30011G17KT 10SM FEW021 BKN028 OVC065 18/14 A2976 RMK AO2 PRESRR SLP071 OCNL LTGIC DSNT SW 60000 T01780139 51018 $
KMCI 280250Z 30012G17KT 10SM BKN025 BKN042 OVC065 18/14 A2976 RMK AO2 OCNL LTGIC DSNT SW $
KMCI 280153Z 09003KT 10SM FEW025 OVC090 20/17 A2974 RMK AO2 RAB07E21 SLP062 P0000 T02000172 $
KMCI 280053Z 04006KT 10SM FEW075 OVC095 19/17 A2971 RMK AO2 SLP054 T01940172 $

METAR Board
Radar Display
Forecast Discussion

TAF Board Legend

Potential Impact
Threat None Slight Moderate High
Visibility (sm) ≥5.1 5.1>X≥3 3>X≥1 <1
Ceiling (100 ft) ≥30.1 30.1>X≥10 10>X≥5 <5
Wind Speed (kt) <10 10≤X<20 20≤X<30 ≥30
Wind Gust (kt) <15 15≤X<25 25≤X<35 ≥35
Weather No Wx Reported VCTS,-TS,-FZRA,SN TS,FZRA +TS,+FZRA,+SN